sensor_id;sensor_type;location;lat;lon;timestamp;temperature;humidity
15676;DHT22;7938;47.666;9.434;2022-07-15T04:00:35;18.50;92.60
15676;DHT22;7938;47.666;9.434;2022-07-15T04:03:02;18.30;90.80
15676;DHT22;7938;47.666;9.434;2022-07-15T04:05:29;18.30;90.70
15676;DHT22;7938;47.666;9.434;2022-07-15T04:07:56;18.30;90.60
15676;DHT22;7938;47.666;9.434;2022-07-15T04:10:23;18.40;93.40
15676;DHT22;7938;47.666;9.434;2022-07-15T04:12:50;18.30;90.50
15676;DHT22;7938;47.666;9.434;2022-07-15T04:15:17;18.30;90.30
15676;DHT22;7938;47.666;9.434;2022-07-15T04:17:45;18.20;90.30
15676;DHT22;7938;47.666;9.434;2022-07-15T04:20:12;18.20;90.40
15676;DHT22;7938;47.666;9.434;2022-07-15T04:22:39;18.10;90.30
15676;DHT22;7938;47.666;9.434;2022-07-15T04:25:08;18.10;90.20
15676;DHT22;7938;47.666;9.434;2022-07-15T04:27:35;18.10;90.40
15676;DHT22;7938;47.666;9.434;2022-07-15T04:30:02;18.20;90.20
15676;DHT22;7938;47.666;9.434;2022-07-15T04:32:30;18.10;90.10
15676;DHT22;7938;47.666;9.434;2022-07-15T04:34:59;18.20;90.00
15676;DHT22;7938;47.666;9.434;2022-07-15T04:37:25;18.20;89.90
15676;DHT22;7938;47.666;9.434;2022-07-15T04:39:53;18.30;89.80
15676;DHT22;7938;47.666;9.434;2022-07-15T04:42:20;18.40;88.70
15676;DHT22;7938;47.666;9.434;2022-07-15T04:44:47;18.40;89.80
15676;DHT22;7938;47.666;9.434;2022-07-15T04:47:14;18.40;89.30
15676;DHT22;7938;47.666;9.434;2022-07-15T04:49:42;18.40;90.00
15676;DHT22;7938;47.666;9.434;2022-07-15T04:52:28;18.40;88.20
15676;DHT22;7938;47.666;9.434;2022-07-15T04:54:56;18.30;88.80
15676;DHT22;7938;47.666;9.434;2022-07-15T04:57:23;18.40;88.80
15676;DHT22;7938;47.666;9.434;2022-07-15T04:59:50;18.50;88.40
15676;DHT22;7938;47.666;9.434;2022-07-15T05:02:17;18.50;87.90
15676;DHT22;7938;47.666;9.434;2022-07-15T05:04:44;18.40;88.00
15676;DHT22;7938;47.666;9.434;2022-07-15T05:07:13;18.50;88.30
15676;DHT22;7938;47.666;9.434;2022-07-15T05:09:41;18.50;87.80
15676;DHT22;7938;47.666;9.434;2022-07-15T05:12:08;18.40;87.50
15676;DHT22;7938;47.666;9.434;2022-07-15T05:14:35;18.30;87.90
15676;DHT22;7938;47.666;9.434;2022-07-15T05:17:03;18.30;88.80
15676;DHT22;7938;47.666;9.434;2022-07-15T05:19:31;18.20;88.10
15676;DHT22;7938;47.666;9.434;2022-07-15T05:21:58;18.20;87.50
15676;DHT22;7938;47.666;9.434;2022-07-15T05:24:25;18.20;88.20
15676;DHT22;7938;47.666;9.434;2022-07-15T05:26:53;18.10;89.00
15676;DHT22;7938;47.666;9.434;2022-07-15T05:29:21;18.10;88.00
15676;DHT22;7938;47.666;9.434;2022-07-15T05:31:48;18.10;87.70
15676;DHT22;7938;47.666;9.434;2022-07-15T05:34:15;18.20;87.70
15676;DHT22;7938;47.666;9.434;2022-07-15T05:36:43;18.30;88.90
15676;DHT22;7938;47.666;9.434;2022-07-15T05:39:10;18.40;88.50
15676;DHT22;7938;47.666;9.434;2022-07-15T05:41:37;18.50;87.00
15676;DHT22;7938;47.666;9.434;2022-07-15T05:44:05;18.60;87.70
15676;DHT22;7938;47.666;9.434;2022-07-15T05:46:32;18.80;88.20
15676;DHT22;7938;47.666;9.434;2022-07-15T05:48:59;18.90;88.50
15676;DHT22;7938;47.666;9.434;2022-07-15T05:51:26;19.00;87.00
15676;DHT22;7938;47.666;9.434;2022-07-15T05:53:54;19.60;86.80
15676;DHT22;7938;47.666;9.434;2022-07-15T05:56:21;19.00;86.20
15676;DHT22;7938;47.666;9.434;2022-07-15T05:58:48;19.10;87.30
15676;DHT22;7938;47.666;9.434;2022-07-15T06:01:16;19.20;86.00
15676;DHT22;7938;47.666;9.434;2022-07-15T06:03:43;19.10;85.80
15676;DHT22;7938;47.666;9.434;2022-07-15T06:06:10;19.20;86.50
15676;DHT22;7938;47.666;9.434;2022-07-15T06:08:37;19.30;85.20
15676;DHT22;7938;47.666;9.434;2022-07-15T06:11:05;19.50;85.30
15676;DHT22;7938;47.666;9.434;2022-07-15T06:13:34;19.50;85.10
15676;DHT22;7938;47.666;9.434;2022-07-15T06:16:01;19.60;85.60
15676;DHT22;7938;47.666;9.434;2022-07-15T06:18:29;19.60;85.70
15676;DHT22;7938;47.666;9.434;2022-07-15T06:20:56;19.80;85.40
15676;DHT22;7938;47.666;9.434;2022-07-15T06:23:23;19.80;85.70
15676;DHT22;7938;47.666;9.434;2022-07-15T06:25:50;19.80;84.60
15676;DHT22;7938;47.666;9.434;2022-07-15T06:28:17;19.90;84.80
15676;DHT22;7938;47.666;9.434;2022-07-15T06:30:44;19.90;83.70
15676;DHT22;7938;47.666;9.434;2022-07-15T06:33:11;19.90;84.00
15676;DHT22;7938;47.666;9.434;2022-07-15T06:35:40;19.90;84.10
15676;DHT22;7938;47.666;9.434;2022-07-15T06:38:07;20.00;84.40
15676;DHT22;7938;47.666;9.434;2022-07-15T06:40:34;19.90;90.30
15676;DHT22;7938;47.666;9.434;2022-07-15T06:43:01;20.10;84.40
15676;DHT22;7938;47.666;9.434;2022-07-15T06:45:28;20.10;84.20
15676;DHT22;7938;47.666;9.434;2022-07-15T06:47:55;20.30;85.70
15676;DHT22;7938;47.666;9.434;2022-07-15T06:50:22;20.30;89.00
15676;DHT22;7938;47.666;9.434;2022-07-15T06:52:51;20.50;84.20
15676;DHT22;7938;47.666;9.434;2022-07-15T06:55:18;20.60;84.10
15676;DHT22;7938;47.666;9.434;2022-07-15T06:57:45;20.60;83.50
15676;DHT22;7938;47.666;9.434;2022-07-15T07:00:13;20.70;83.20
15676;DHT22;7938;47.666;9.434;2022-07-15T07:02:40;20.70;82.60
15676;DHT22;7938;47.666;9.434;2022-07-15T07:05:08;20.60;84.10
15676;DHT22;7938;47.666;9.434;2022-07-15T07:07:35;20.70;84.30
15676;DHT22;7938;47.666;9.434;2022-07-15T07:10:04;20.80;84.00
15676;DHT22;7938;47.666;9.434;2022-07-15T07:12:31;20.90;83.10
15676;DHT22;7938;47.666;9.434;2022-07-15T07:14:58;20.90;83.00
15676;DHT22;7938;47.666;9.434;2022-07-15T07:17:26;20.80;84.70
15676;DHT22;7938;47.666;9.434;2022-07-15T07:19:53;20.70;84.10
15676;DHT22;7938;47.666;9.434;2022-07-15T07:22:21;20.60;84.40
15676;DHT22;7938;47.666;9.434;2022-07-15T07:24:48;20.70;85.60
15676;DHT22;7938;47.666;9.434;2022-07-15T07:27:16;20.70;85.00
15676;DHT22;7938;47.666;9.434;2022-07-15T07:29:43;20.60;83.70
15676;DHT22;7938;47.666;9.434;2022-07-15T07:32:10;21.90;85.40
15676;DHT22;7938;47.666;9.434;2022-07-15T07:34:37;20.70;85.40
15676;DHT22;7938;47.666;9.434;2022-07-15T07:37:04;20.80;85.40
15676;DHT22;7938;47.666;9.434;2022-07-15T07:39:31;21.00;85.20
15676;DHT22;7938;47.666;9.434;2022-07-15T07:41:58;21.20;83.70
15676;DHT22;7938;47.666;9.434;2022-07-15T07:44:26;21.30;85.10
15676;DHT22;7938;47.666;9.434;2022-07-15T07:46:53;21.30;83.40
15676;DHT22;7938;47.666;9.434;2022-07-15T07:49:20;21.40;85.40
15676;DHT22;7938;47.666;9.434;2022-07-15T07:51:47;21.50;83.60
15676;DHT22;7938;47.666;9.434;2022-07-15T07:54:14;21.60;85.10
15676;DHT22;7938;47.666;9.434;2022-07-15T07:56:41;21.80;85.00
15676;DHT22;7938;47.666;9.434;2022-07-15T07:59:08;22.00;86.20
15676;DHT22;7938;47.666;9.434;2022-07-15T08:01:36;22.00;83.90
15676;DHT22;7938;47.666;9.434;2022-07-15T08:04:03;22.10;85.40
15676;DHT22;7938;47.666;9.434;2022-07-15T08:06:30;22.10;84.00
15676;DHT22;7938;47.666;9.434;2022-07-15T08:08:59;22.20;85.50
15676;DHT22;7938;47.666;9.434;2022-07-15T08:11:26;22.40;82.80
15676;DHT22;7938;47.666;9.434;2022-07-15T08:13:53;22.40;82.10
15676;DHT22;7938;47.666;9.434;2022-07-15T08:16:20;22.40;84.10
15676;DHT22;7938;47.666;9.434;2022-07-15T08:18:49;22.50;85.00
15676;DHT22;7938;47.666;9.434;2022-07-15T08:21:16;22.60;83.60
15676;DHT22;7938;47.666;9.434;2022-07-15T08:23:43;22.70;84.70
15676;DHT22;7938;47.666;9.434;2022-07-15T08:26:10;22.70;85.40
15676;DHT22;7938;47.666;9.434;2022-07-15T08:28:39;22.70;84.80
15676;DHT22;7938;47.666;9.434;2022-07-15T08:31:06;22.80;81.70
15676;DHT22;7938;47.666;9.434;2022-07-15T08:33:33;22.80;82.70
15676;DHT22;7938;47.666;9.434;2022-07-15T08:36:01;22.90;83.10
15676;DHT22;7938;47.666;9.434;2022-07-15T08:38:28;23.00;82.60
15676;DHT22;7938;47.666;9.434;2022-07-15T08:40:56;23.00;83.10
15676;DHT22;7938;47.666;9.434;2022-07-15T08:43:23;23.00;83.10
15676;DHT22;7938;47.666;9.434;2022-07-15T08:45:50;23.10;83.80
15676;DHT22;7938;47.666;9.434;2022-07-15T08:48:18;23.30;84.40
15676;DHT22;7938;47.666;9.434;2022-07-15T08:50:49;23.60;84.10
15676;DHT22;7938;47.666;9.434;2022-07-15T08:53:18;23.50;84.80
15676;DHT22;7938;47.666;9.434;2022-07-15T08:55:46;23.50;83.50
15676;DHT22;7938;47.666;9.434;2022-07-15T08:58:13;23.50;82.80
15676;DHT22;7938;47.666;9.434;2022-07-15T09:00:40;23.30;82.50
15676;DHT22;7938;47.666;9.434;2022-07-15T09:03:07;23.40;83.80
15676;DHT22;7938;47.666;9.434;2022-07-15T09:05:35;23.50;83.80
15676;DHT22;7938;47.666;9.434;2022-07-15T09:08:04;23.60;81.80
15676;DHT22;7938;47.666;9.434;2022-07-15T09:10:48;24.00;86.70
15676;DHT22;7938;47.666;9.434;2022-07-15T09:13:27;24.00;82.10
15676;DHT22;7938;47.666;9.434;2022-07-15T09:15:57;24.10;81.80
15676;DHT22;7938;47.666;9.434;2022-07-15T09:18:27;24.10;81.50
15676;DHT22;7938;47.666;9.434;2022-07-15T09:20:55;24.00;80.70
15676;DHT22;7938;47.666;9.434;2022-07-15T09:23:24;24.00;80.60
15676;DHT22;7938;47.666;9.434;2022-07-15T09:25:58;25.20;81.30
15676;DHT22;7938;47.666;9.434;2022-07-15T09:28:36;24.10;80.60
15676;DHT22;7938;47.666;9.434;2022-07-15T09:31:04;24.10;81.80
15676;DHT22;7938;47.666;9.434;2022-07-15T09:33:50;24.20;80.70
15676;DHT22;7938;47.666;9.434;2022-07-15T09:36:19;24.30;78.00
15676;DHT22;7938;47.666;9.434;2022-07-15T09:38:48;24.40;79.20
15676;DHT22;7938;47.666;9.434;2022-07-15T09:41:29;24.60;80.80
15676;DHT22;7938;47.666;9.434;2022-07-15T09:44:02;24.40;82.90
15676;DHT22;7938;47.666;9.434;2022-07-15T09:46:39;23.80;82.10
15676;DHT22;7938;47.666;9.434;2022-07-15T09:49:07;24.10;85.00
15676;DHT22;7938;47.666;9.434;2022-07-15T09:51:43;24.20;84.20
15676;DHT22;7938;47.666;9.434;2022-07-15T09:54:11;24.00;84.70
15676;DHT22;7938;47.666;9.434;2022-07-15T09:56:40;24.00;85.40
15676;DHT22;7938;47.666;9.434;2022-07-15T09:59:08;23.90;85.40
15676;DHT22;7938;47.666;9.434;2022-07-15T10:01:35;24.10;84.80
15676;DHT22;7938;47.666;9.434;2022-07-15T10:04:03;24.20;85.30
15676;DHT22;7938;47.666;9.434;2022-07-15T10:06:32;24.30;84.30
15676;DHT22;7938;47.666;9.434;2022-07-15T10:09:02;24.40;85.30
15676;DHT22;7938;47.666;9.434;2022-07-15T10:11:32;24.50;83.80
15676;DHT22;7938;47.666;9.434;2022-07-15T10:14:29;24.50;83.90
15676;DHT22;7938;47.666;9.434;2022-07-15T10:20:37;24.70;80.60
15676;DHT22;7938;47.666;9.434;2022-07-15T10:23:18;24.70;81.20
15676;DHT22;7938;47.666;9.434;2022-07-15T10:26:11;24.80;83.30
15676;DHT22;7938;47.666;9.434;2022-07-15T10:28:49;24.90;81.70
15676;DHT22;7938;47.666;9.434;2022-07-15T10:31:21;25.00;82.50
15676;DHT22;7938;47.666;9.434;2022-07-15T10:34:17;25.00;81.10
15676;DHT22;7938;47.666;9.434;2022-07-15T10:37:04;24.90;80.00
15676;DHT22;7938;47.666;9.434;2022-07-15T10:40:04;24.90;82.40
15676;DHT22;7938;47.666;9.434;2022-07-15T10:42:56;24.80;79.30
15676;DHT22;7938;47.666;9.434;2022-07-15T10:45:23;25.00;80.10
15676;DHT22;7938;47.666;9.434;2022-07-15T10:48:26;24.90;79.90
15676;DHT22;7938;47.666;9.434;2022-07-15T10:50:53;25.00;79.10
15676;DHT22;7938;47.666;9.434;2022-07-15T10:53:24;25.00;80.70
15676;DHT22;7938;47.666;9.434;2022-07-15T10:55:53;25.20;81.50
15676;DHT22;7938;47.666;9.434;2022-07-15T10:58:20;25.30;81.50
15676;DHT22;7938;47.666;9.434;2022-07-15T11:00:47;25.50;80.20
15676;DHT22;7938;47.666;9.434;2022-07-15T11:03:17;25.50;81.80
15676;DHT22;7938;47.666;9.434;2022-07-15T11:06:03;25.50;79.90
15676;DHT22;7938;47.666;9.434;2022-07-15T11:08:49;25.50;83.00
15676;DHT22;7938;47.666;9.434;2022-07-15T11:11:47;25.60;82.50
15676;DHT22;7938;47.666;9.434;2022-07-15T11:14:40;25.70;81.00
15676;DHT22;7938;47.666;9.434;2022-07-15T11:17:08;25.80;83.10
15676;DHT22;7938;47.666;9.434;2022-07-15T11:19:37;25.90;84.20
15676;DHT22;7938;47.666;9.434;2022-07-15T11:22:04;25.90;83.20
15676;DHT22;7938;47.666;9.434;2022-07-15T11:24:31;26.00;83.30
15676;DHT22;7938;47.666;9.434;2022-07-15T11:27:01;26.00;79.50
15676;DHT22;7938;47.666;9.434;2022-07-15T11:29:41;25.70;80.70
15676;DHT22;7938;47.666;9.434;2022-07-15T11:32:08;25.60;81.60
15676;DHT22;7938;47.666;9.434;2022-07-15T11:34:38;25.60;82.60
15676;DHT22;7938;47.666;9.434;2022-07-15T11:37:06;25.70;83.70
15676;DHT22;7938;47.666;9.434;2022-07-15T11:39:33;25.90;81.40
15676;DHT22;7938;47.666;9.434;2022-07-15T11:42:00;25.90;80.70
15676;DHT22;7938;47.666;9.434;2022-07-15T11:44:46;26.00;81.30
15676;DHT22;7938;47.666;9.434;2022-07-15T11:47:13;25.90;79.20
15676;DHT22;7938;47.666;9.434;2022-07-15T11:49:41;25.90;82.60
15676;DHT22;7938;47.666;9.434;2022-07-15T11:52:11;26.00;81.40
15676;DHT22;7938;47.666;9.434;2022-07-15T11:54:39;26.00;79.80
15676;DHT22;7938;47.666;9.434;2022-07-15T11:57:08;26.10;78.60
15676;DHT22;7938;47.666;9.434;2022-07-15T11:59:36;26.00;77.80
15676;DHT22;7938;47.666;9.434;2022-07-15T12:02:05;26.00;79.50
15676;DHT22;7938;47.666;9.434;2022-07-15T12:04:34;26.10;79.80
15676;DHT22;7938;47.666;9.434;2022-07-15T12:07:03;26.00;76.30
15676;DHT22;7938;47.666;9.434;2022-07-15T12:09:39;26.10;78.30
15676;DHT22;7938;47.666;9.434;2022-07-15T12:12:06;26.30;80.30
15676;DHT22;7938;47.666;9.434;2022-07-15T12:14:33;26.40;81.50
15676;DHT22;7938;47.666;9.434;2022-07-15T12:17:01;26.50;80.70
15676;DHT22;7938;47.666;9.434;2022-07-15T12:19:29;26.50;78.90
15676;DHT22;7938;47.666;9.434;2022-07-15T12:22:05;26.40;77.90
15676;DHT22;7938;47.666;9.434;2022-07-15T12:24:39;26.50;77.40
15676;DHT22;7938;47.666;9.434;2022-07-15T12:27:06;26.50;75.90
15676;DHT22;7938;47.666;9.434;2022-07-15T12:33:14;26.70;75.40
15676;DHT22;7938;47.666;9.434;2022-07-15T12:35:41;26.80;74.80
15676;DHT22;7938;47.666;9.434;2022-07-15T12:38:09;27.10;75.50
15676;DHT22;7938;47.666;9.434;2022-07-15T12:40:43;27.30;77.80
15676;DHT22;7938;47.666;9.434;2022-07-15T12:43:10;27.30;76.20
15676;DHT22;7938;47.666;9.434;2022-07-15T12:45:37;27.30;75.50
15676;DHT22;7938;47.666;9.434;2022-07-15T12:48:06;27.20;74.90
15676;DHT22;7938;47.666;9.434;2022-07-15T12:50:35;27.20;74.90
15676;DHT22;7938;47.666;9.434;2022-07-15T12:53:03;27.10;73.50
15676;DHT22;7938;47.666;9.434;2022-07-15T12:55:39;27.10;77.50
15676;DHT22;7938;47.666;9.434;2022-07-15T12:58:08;27.20;75.90
15676;DHT22;7938;47.666;9.434;2022-07-15T13:00:36;27.40;77.60
15676;DHT22;7938;47.666;9.434;2022-07-15T13:03:05;27.30;75.70
15676;DHT22;7938;47.666;9.434;2022-07-15T13:05:34;27.20;79.60
15676;DHT22;7938;47.666;9.434;2022-07-15T13:08:03;27.20;77.80
15676;DHT22;7938;47.666;9.434;2022-07-15T13:10:32;27.40;77.20
15676;DHT22;7938;47.666;9.434;2022-07-15T13:12:59;27.30;75.80
15676;DHT22;7938;47.666;9.434;2022-07-15T13:15:26;27.60;77.20
15676;DHT22;7938;47.666;9.434;2022-07-15T13:17:53;27.80;78.20
15676;DHT22;7938;47.666;9.434;2022-07-15T13:20:20;28.00;75.40
15676;DHT22;7938;47.666;9.434;2022-07-15T13:22:47;28.00;75.70
15676;DHT22;7938;47.666;9.434;2022-07-15T13:25:14;27.90;77.60
15676;DHT22;7938;47.666;9.434;2022-07-15T13:27:43;28.20;78.50
15676;DHT22;7938;47.666;9.434;2022-07-15T13:30:11;28.20;76.60
15676;DHT22;7938;47.666;9.434;2022-07-15T13:32:39;28.30;74.00
15676;DHT22;7938;47.666;9.434;2022-07-15T13:35:07;28.40;76.20
15676;DHT22;7938;47.666;9.434;2022-07-15T13:37:35;28.50;73.40
15676;DHT22;7938;47.666;9.434;2022-07-15T13:40:02;28.80;71.50
15676;DHT22;7938;47.666;9.434;2022-07-15T13:42:29;28.90;69.40
15676;DHT22;7938;47.666;9.434;2022-07-15T13:44:57;29.20;67.60
15676;DHT22;7938;47.666;9.434;2022-07-15T13:47:25;29.20;69.10
15676;DHT22;7938;47.666;9.434;2022-07-15T13:49:52;28.90;67.60
15676;DHT22;7938;47.666;9.434;2022-07-15T13:52:41;28.90;65.80
15676;DHT22;7938;47.666;9.434;2022-07-15T13:55:09;29.00;64.40
15676;DHT22;7938;47.666;9.434;2022-07-15T13:57:37;29.00;68.20
15676;DHT22;7938;47.666;9.434;2022-07-15T14:00:07;29.40;67.10
15676;DHT22;7938;47.666;9.434;2022-07-15T14:02:37;30.40;62.00
15676;DHT22;7938;47.666;9.434;2022-07-15T14:05:05;32.00;63.70
15676;DHT22;7938;47.666;9.434;2022-07-15T14:07:33;32.80;63.20
15676;DHT22;7938;47.666;9.434;2022-07-15T14:10:00;32.50;59.10
15676;DHT22;7938;47.666;9.434;2022-07-15T14:12:27;32.70;59.30
15676;DHT22;7938;47.666;9.434;2022-07-15T14:14:54;33.60;59.50
15676;DHT22;7938;47.666;9.434;2022-07-15T14:17:22;33.00;56.60
15676;DHT22;7938;47.666;9.434;2022-07-15T14:19:49;33.10;58.80
15676;DHT22;7938;47.666;9.434;2022-07-15T14:22:16;33.70;57.50
15676;DHT22;7938;47.666;9.434;2022-07-15T14:24:43;34.20;56.60
15676;DHT22;7938;47.666;9.434;2022-07-15T14:27:10;33.90;57.20
15676;DHT22;7938;47.666;9.434;2022-07-15T14:29:37;33.50;57.60
15676;DHT22;7938;47.666;9.434;2022-07-15T14:32:04;34.80;59.60
15676;DHT22;7938;47.666;9.434;2022-07-15T14:34:33;34.90;54.90
15676;DHT22;7938;47.666;9.434;2022-07-15T14:37:00;35.40;54.80
15676;DHT22;7938;47.666;9.434;2022-07-15T14:39:26;36.50;53.80
15676;DHT22;7938;47.666;9.434;2022-07-15T14:41:53;37.70;51.00
15676;DHT22;7938;47.666;9.434;2022-07-15T14:44:20;37.60;49.60
15676;DHT22;7938;47.666;9.434;2022-07-15T14:46:47;38.10;48.80
15676;DHT22;7938;47.666;9.434;2022-07-15T14:49:14;38.20;50.30
15676;DHT22;7938;47.666;9.434;2022-07-15T14:51:42;38.80;48.50
15676;DHT22;7938;47.666;9.434;2022-07-15T14:54:09;38.30;48.40
15676;DHT22;7938;47.666;9.434;2022-07-15T14:56:36;37.80;50.30
15676;DHT22;7938;47.666;9.434;2022-07-15T14:59:03;37.50;51.20
15676;DHT22;7938;47.666;9.434;2022-07-15T15:01:30;38.00;49.90
15676;DHT22;7938;47.666;9.434;2022-07-15T15:03:57;38.00;48.00
15676;DHT22;7938;47.666;9.434;2022-07-15T15:06:24;38.10;49.00
15676;DHT22;7938;47.666;9.434;2022-07-15T15:08:52;39.00;47.70
15676;DHT22;7938;47.666;9.434;2022-07-15T15:11:19;39.50;46.90
15676;DHT22;7938;47.666;9.434;2022-07-15T15:13:47;39.90;48.70
15676;DHT22;7938;47.666;9.434;2022-07-15T15:16:14;40.10;48.50
15676;DHT22;7938;47.666;9.434;2022-07-15T15:18:40;39.80;47.40
15676;DHT22;7938;47.666;9.434;2022-07-15T15:21:08;40.10;44.10
15676;DHT22;7938;47.666;9.434;2022-07-15T15:23:35;40.40;46.70
15676;DHT22;7938;47.666;9.434;2022-07-15T15:26:03;40.90;47.20
15676;DHT22;7938;47.666;9.434;2022-07-15T15:28:49;40.80;45.40
15676;DHT22;7938;47.666;9.434;2022-07-15T15:31:16;39.90;45.50
15676;DHT22;7938;47.666;9.434;2022-07-15T15:33:43;40.20;45.50
15676;DHT22;7938;47.666;9.434;2022-07-15T15:36:10;40.00;44.60
15676;DHT22;7938;47.666;9.434;2022-07-15T15:38:38;40.50;43.20
15676;DHT22;7938;47.666;9.434;2022-07-15T15:41:07;40.30;46.80
15676;DHT22;7938;47.666;9.434;2022-07-15T15:43:34;40.40;48.10
15676;DHT22;7938;47.666;9.434;2022-07-15T15:46:02;40.30;48.70
15676;DHT22;7938;47.666;9.434;2022-07-15T15:48:29;39.70;47.30
15676;DHT22;7938;47.666;9.434;2022-07-15T15:50:56;39.70;46.40
15676;DHT22;7938;47.666;9.434;2022-07-15T15:53:23;39.80;46.00
15676;DHT22;7938;47.666;9.434;2022-07-15T15:55:50;40.30;45.90
15676;DHT22;7938;47.666;9.434;2022-07-15T15:58:18;40.60;45.40
15676;DHT22;7938;47.666;9.434;2022-07-15T16:00:45;41.10;44.40
15676;DHT22;7938;47.666;9.434;2022-07-15T16:03:13;41.20;44.50
15676;DHT22;7938;47.666;9.434;2022-07-15T16:05:40;41.10;44.60
15676;DHT22;7938;47.666;9.434;2022-07-15T16:08:07;41.00;44.70
15676;DHT22;7938;47.666;9.434;2022-07-15T16:10:34;40.70;46.70
15676;DHT22;7938;47.666;9.434;2022-07-15T16:13:01;40.70;46.80
15676;DHT22;7938;47.666;9.434;2022-07-15T16:15:29;40.20;47.90
15676;DHT22;7938;47.666;9.434;2022-07-15T16:17:56;39.40;49.00
15676;DHT22;7938;47.666;9.434;2022-07-15T16:20:24;39.40;47.00
15676;DHT22;7938;47.666;9.434;2022-07-15T16:22:51;39.50;47.60
15676;DHT22;7938;47.666;9.434;2022-07-15T16:25:25;39.50;47.60
15676;DHT22;7938;47.666;9.434;2022-07-15T16:27:54;39.80;46.90
15676;DHT22;7938;47.666;9.434;2022-07-15T16:30:22;40.30;47.40
15676;DHT22;7938;47.666;9.434;2022-07-15T16:32:50;40.40;48.10
15676;DHT22;7938;47.666;9.434;2022-07-15T16:35:18;40.40;48.00
15676;DHT22;7938;47.666;9.434;2022-07-15T16:37:47;40.80;48.60
15676;DHT22;7938;47.666;9.434;2022-07-15T16:40:15;39.80;48.00
15676;DHT22;7938;47.666;9.434;2022-07-15T16:42:42;39.60;48.30
15676;DHT22;7938;47.666;9.434;2022-07-15T16:45:10;38.70;48.10
15676;DHT22;7938;47.666;9.434;2022-07-15T16:47:37;38.30;47.10
15676;DHT22;7938;47.666;9.434;2022-07-15T16:50:06;38.20;48.90
15676;DHT22;7938;47.666;9.434;2022-07-15T16:52:33;38.10;48.40
15676;DHT22;7938;47.666;9.434;2022-07-15T16:55:01;38.60;49.90
15676;DHT22;7938;47.666;9.434;2022-07-15T16:57:28;39.50;48.10
15676;DHT22;7938;47.666;9.434;2022-07-15T16:59:55;40.00;48.20
15676;DHT22;7938;47.666;9.434;2022-07-15T17:02:22;40.00;46.30
15676;DHT22;7938;47.666;9.434;2022-07-15T17:04:49;39.80;46.60
15676;DHT22;7938;47.666;9.434;2022-07-15T17:07:17;39.90;47.20
15676;DHT22;7938;47.666;9.434;2022-07-15T17:09:44;39.70;48.10
15676;DHT22;7938;47.666;9.434;2022-07-15T17:12:11;39.30;46.90
15676;DHT22;7938;47.666;9.434;2022-07-15T17:14:38;39.00;49.30
15676;DHT22;7938;47.666;9.434;2022-07-15T17:17:05;38.60;48.80
15676;DHT22;7938;47.666;9.434;2022-07-15T17:19:32;38.80;49.40
15676;DHT22;7938;47.666;9.434;2022-07-15T17:21:59;38.90;49.00
15676;DHT22;7938;47.666;9.434;2022-07-15T17:24:27;37.80;49.10
15676;DHT22;7938;47.666;9.434;2022-07-15T17:26:55;37.10;50.40
15676;DHT22;7938;47.666;9.434;2022-07-15T17:29:22;37.30;50.70
15676;DHT22;7938;47.666;9.434;2022-07-15T17:31:49;37.00;50.30
15676;DHT22;7938;47.666;9.434;2022-07-15T17:34:16;36.60;53.30
15676;DHT22;7938;47.666;9.434;2022-07-15T17:36:43;36.30;53.60
15676;DHT22;7938;47.666;9.434;2022-07-15T17:39:11;36.40;55.00
15676;DHT22;7938;47.666;9.434;2022-07-15T17:41:39;36.30;54.80
15676;DHT22;7938;47.666;9.434;2022-07-15T17:44:06;36.50;55.60
15676;DHT22;7938;47.666;9.434;2022-07-15T17:46:33;36.60;54.60
15676;DHT22;7938;47.666;9.434;2022-07-15T17:49:00;35.60;54.70
15676;DHT22;7938;47.666;9.434;2022-07-15T17:51:27;35.40;55.70
15676;DHT22;7938;47.666;9.434;2022-07-15T17:53:54;35.10;56.60
15676;DHT22;7938;47.666;9.434;2022-07-15T17:56:21;33.40;55.80
15676;DHT22;7938;47.666;9.434;2022-07-15T17:58:49;32.10;61.40
15676;DHT22;7938;47.666;9.434;2022-07-15T18:01:16;30.80;66.80
15676;DHT22;7938;47.666;9.434;2022-07-15T18:03:44;30.60;67.80
15676;DHT22;7938;47.666;9.434;2022-07-15T18:06:11;30.00;67.90
15676;DHT22;7938;47.666;9.434;2022-07-15T18:08:38;29.50;69.20
15676;DHT22;7938;47.666;9.434;2022-07-15T18:11:05;30.00;73.00
15676;DHT22;7938;47.666;9.434;2022-07-15T18:13:32;28.60;73.00
15676;DHT22;7938;47.666;9.434;2022-07-15T18:16:00;28.20;74.60
15676;DHT22;7938;47.666;9.434;2022-07-15T18:18:27;27.80;75.70
15676;DHT22;7938;47.666;9.434;2022-07-15T18:20:54;27.40;77.60
15676;DHT22;7938;47.666;9.434;2022-07-15T18:23:21;27.30;77.30
15676;DHT22;7938;47.666;9.434;2022-07-15T18:25:48;27.10;76.90
15676;DHT22;7938;47.666;9.434;2022-07-15T18:28:15;26.90;75.80
15676;DHT22;7938;47.666;9.434;2022-07-15T18:30:42;26.40;71.50
15676;DHT22;7938;47.666;9.434;2022-07-15T18:33:12;26.40;69.90
15676;DHT22;7938;47.666;9.434;2022-07-15T18:35:39;26.30;71.00
15676;DHT22;7938;47.666;9.434;2022-07-15T18:38:06;26.00;67.60
15676;DHT22;7938;47.666;9.434;2022-07-15T18:40:33;25.60;67.80
15676;DHT22;7938;47.666;9.434;2022-07-15T18:43:00;25.60;68.20
15676;DHT22;7938;47.666;9.434;2022-07-15T18:45:27;25.50;69.10
15676;DHT22;7938;47.666;9.434;2022-07-15T18:47:55;25.30;68.00
15676;DHT22;7938;47.666;9.434;2022-07-15T18:50:23;25.20;68.40
15676;DHT22;7938;47.666;9.434;2022-07-15T18:52:50;25.00;68.10
15676;DHT22;7938;47.666;9.434;2022-07-15T18:55:17;24.90;68.10
15676;DHT22;7938;47.666;9.434;2022-07-15T18:57:44;24.70;70.60
15676;DHT22;7938;47.666;9.434;2022-07-15T19:00:11;24.50;71.40
15676;DHT22;7938;47.666;9.434;2022-07-15T19:02:38;24.40;72.10
15676;DHT22;7938;47.666;9.434;2022-07-15T19:05:06;24.20;73.60
15676;DHT22;7938;47.666;9.434;2022-07-15T19:07:34;24.00;73.60
15676;DHT22;7938;47.666;9.434;2022-07-15T19:10:02;23.80;71.10
15676;DHT22;7938;47.666;9.434;2022-07-15T19:12:29;23.60;71.80
15676;DHT22;7938;47.666;9.434;2022-07-15T19:14:56;23.50;74.00
15676;DHT22;7938;47.666;9.434;2022-07-15T19:17:22;23.30;77.80
15676;DHT22;7938;47.666;9.434;2022-07-15T19:19:49;23.10;74.30
15676;DHT22;7938;47.666;9.434;2022-07-15T19:22:16;23.00;74.10
15676;DHT22;7938;47.666;9.434;2022-07-15T19:24:45;22.90;74.80
15676;DHT22;7938;47.666;9.434;2022-07-15T19:27:12;22.90;75.10
15676;DHT22;7938;47.666;9.434;2022-07-15T19:29:39;22.70;72.90
15676;DHT22;7938;47.666;9.434;2022-07-15T19:32:06;22.50;80.40
15676;DHT22;7938;47.666;9.434;2022-07-15T19:34:33;22.40;75.70
15676;DHT22;7938;47.666;9.434;2022-07-15T19:37:00;22.20;80.00
15676;DHT22;7938;47.666;9.434;2022-07-15T19:39:27;22.00;83.50
15676;DHT22;7938;47.666;9.434;2022-07-15T19:41:56;21.90;77.90
15676;DHT22;7938;47.666;9.434;2022-07-15T19:44:24;21.90;76.70
15676;DHT22;7938;47.666;9.434;2022-07-15T19:46:51;21.80;83.20
15676;DHT22;7938;47.666;9.434;2022-07-15T19:49:18;21.70;82.90
15676;DHT22;7938;47.666;9.434;2022-07-15T19:51:45;21.50;79.60
15676;DHT22;7938;47.666;9.434;2022-07-15T19:54:12;21.50;77.40
15676;DHT22;7938;47.666;9.434;2022-07-15T19:56:39;21.50;78.00
15676;DHT22;7938;47.666;9.434;2022-07-15T19:59:08;21.50;78.90
15676;DHT22;7938;47.666;9.434;2022-07-15T20:01:56;21.30;79.00